createdAt,value
2022-11-08T00:01:22.046Z,9.05
2022-11-08T00:04:20.470Z,9.09
2022-11-08T00:07:36.425Z,9.12
2022-11-08T00:10:51.637Z,9.13
2022-11-08T00:13:58.893Z,9.18
2022-11-08T00:16:55.709Z,9.19
2022-11-08T00:19:53.158Z,9.20
2022-11-08T00:22:49.981Z,9.05
2022-11-08T00:25:54.405Z,9.01
2022-11-08T00:28:51.241Z,8.95
2022-11-08T00:31:48.109Z,8.95
2022-11-08T00:34:45.093Z,8.89
2022-11-08T00:37:41.909Z,8.84
2022-11-08T00:40:38.717Z,8.81
2022-11-08T00:43:35.626Z,8.76
2022-11-08T00:46:32.425Z,8.59
2022-11-08T00:49:29.301Z,8.71
2022-11-08T00:52:26.426Z,8.55
2022-11-08T00:55:23.240Z,8.35
2022-11-08T00:58:23.444Z,8.31
2022-11-08T01:01:24.438Z,8.37
2022-11-08T01:04:21.886Z,8.44
2022-11-08T01:07:18.946Z,8.48
2022-11-08T01:10:15.820Z,8.36
2022-11-08T01:13:13.765Z,8.13
2022-11-08T01:16:17.206Z,8.23
2022-11-08T01:19:14.101Z,8.26
2022-11-08T01:22:10.932Z,8.27
2022-11-08T01:25:08.066Z,8.32
2022-11-08T01:28:05.931Z,8.26
2022-11-08T01:31:13.899Z,8.12
2022-11-08T01:34:10.758Z,7.88
2022-11-08T01:37:07.636Z,7.63
2022-11-08T01:40:05.428Z,7.56
2022-11-08T01:43:35.768Z,7.27
2022-11-08T01:46:39.473Z,7.27
2022-11-08T01:49:46.024Z,7.32
2022-11-08T01:52:45.525Z,7.09
2022-11-08T01:55:42.906Z,7.12
2022-11-08T01:58:41.305Z,7.06
2022-11-08T02:01:38.439Z,6.95
2022-11-08T02:04:36.024Z,6.82
2022-11-08T02:07:34.677Z,6.79
2022-11-08T02:10:42.344Z,6.89
2022-11-08T02:13:40.315Z,6.76
2022-11-08T02:16:37.192Z,6.56
2022-11-08T02:19:45.625Z,6.71
2022-11-08T02:22:54.275Z,6.73
2022-11-08T02:25:51.144Z,6.45
2022-11-08T02:28:49.287Z,6.63
2022-11-08T02:31:46.143Z,6.64
2022-11-08T02:34:48.167Z,6.47
2022-11-08T02:37:46.902Z,6.47
2022-11-08T02:40:49.295Z,6.39
2022-11-08T02:43:46.149Z,6.36
2022-11-08T02:46:43.081Z,6.22
2022-11-08T02:49:40.034Z,6.06
2022-11-08T02:52:36.891Z,6.06
2022-11-08T02:55:35.193Z,6.33
2022-11-08T02:58:32.119Z,6.18
2022-11-08T03:01:29.135Z,6.17
2022-11-08T03:04:26.138Z,6.03
2022-11-08T03:07:25.036Z,6.09
2022-11-08T03:10:23.823Z,5.86
2022-11-08T03:13:20.859Z,6.01
2022-11-08T03:16:17.851Z,6.01
2022-11-08T03:19:14.733Z,6.03
2022-11-08T03:22:11.590Z,5.85
2022-11-08T03:25:08.704Z,5.69
2022-11-08T03:28:08.882Z,5.66
2022-11-08T03:31:06.011Z,5.76
2022-11-08T03:34:02.884Z,5.65
2022-11-08T03:37:00.275Z,5.92
2022-11-08T03:39:57.196Z,5.97
2022-11-08T03:42:57.469Z,5.92
2022-11-08T03:45:54.377Z,5.70
2022-11-08T03:48:51.231Z,5.80
2022-11-08T03:51:48.097Z,5.72
2022-11-08T03:54:44.930Z,5.71
2022-11-08T03:57:42.997Z,5.50
2022-11-08T04:00:40.142Z,5.48
2022-11-08T04:03:37.018Z,5.57
2022-11-08T04:06:33.916Z,5.53
2022-11-08T04:09:30.848Z,5.39
2022-11-08T04:12:46.397Z,5.19
2022-11-08T04:15:43.368Z,5.28
2022-11-08T04:18:58.783Z,5.62
2022-11-08T04:21:56.690Z,5.46
2022-11-08T04:24:53.564Z,5.75
2022-11-08T04:27:50.455Z,5.58
2022-11-08T04:31:13.285Z,5.57
2022-11-08T04:34:10.317Z,5.59
2022-11-08T04:37:08.468Z,5.70
2022-11-08T04:40:06.058Z,5.40
2022-11-08T04:43:02.898Z,5.29
2022-11-08T04:46:05.274Z,5.34
2022-11-08T04:49:02.159Z,5.25
2022-11-08T04:51:59.038Z,5.32
2022-11-08T04:54:55.845Z,5.18
2022-11-08T04:57:57.164Z,5.08
2022-11-08T05:00:54.005Z,4.90
2022-11-08T05:03:52.965Z,5.01
2022-11-08T05:06:49.916Z,4.89
2022-11-08T05:09:46.801Z,4.72
2022-11-08T05:12:43.723Z,4.64
2022-11-08T05:15:40.595Z,4.55
2022-11-08T05:18:37.456Z,4.59
2022-11-08T05:21:52.999Z,4.55
2022-11-08T05:24:49.860Z,4.53
2022-11-08T05:27:46.726Z,4.59
2022-11-08T05:30:43.696Z,4.52
2022-11-08T05:33:40.910Z,4.48
2022-11-08T05:36:37.761Z,4.46
2022-11-08T05:39:34.646Z,4.29
2022-11-08T05:42:31.467Z,4.61
2022-11-08T05:45:28.656Z,4.60
2022-11-08T05:48:25.733Z,4.52
2022-11-08T05:51:22.617Z,4.25
2022-11-08T05:54:19.427Z,4.02
2022-11-08T05:57:21.123Z,4.07
2022-11-08T06:00:20.175Z,3.94
2022-11-08T06:03:23.651Z,3.98
2022-11-08T06:06:22.127Z,4.05
2022-11-08T06:09:19.316Z,3.86
2022-11-08T06:12:16.178Z,3.82
2022-11-08T06:15:13.070Z,3.96
2022-11-08T06:18:09.887Z,4.11
2022-11-08T06:21:10.896Z,4.13
2022-11-08T06:24:08.144Z,4.03
2022-11-08T06:27:05.293Z,4.03
2022-11-08T06:30:03.672Z,3.81
2022-11-08T06:33:00.518Z,4.13
2022-11-08T06:35:57.582Z,4.11
2022-11-08T06:38:55.776Z,3.84
2022-11-08T06:41:52.615Z,3.96
2022-11-08T06:44:49.518Z,4.18
2022-11-08T06:47:46.693Z,4.02
2022-11-08T06:50:44.290Z,4.15
2022-11-08T06:53:41.556Z,4.06
2022-11-08T06:56:38.397Z,4.19
2022-11-08T06:59:35.225Z,4.23
2022-11-08T07:02:32.277Z,4.39
2022-11-08T07:05:31.531Z,4.49
2022-11-08T07:08:28.408Z,4.61
2022-11-08T07:11:25.663Z,4.63
2022-11-08T07:14:22.853Z,4.66
2022-11-08T07:17:19.670Z,4.64
2022-11-08T07:20:16.543Z,4.60
2022-11-08T07:23:14.563Z,4.66
2022-11-08T07:26:13.111Z,4.63
2022-11-08T07:29:14.771Z,4.64
2022-11-08T07:32:12.703Z,4.80
2022-11-08T07:35:09.820Z,4.76
2022-11-08T07:38:07.343Z,5.03
2022-11-08T07:41:07.257Z,4.93
2022-11-08T07:44:04.184Z,5.22
2022-11-08T07:47:01.089Z,5.41
2022-11-08T07:49:57.925Z,5.63
2022-11-08T07:52:55.060Z,5.71
2022-11-08T07:55:52.261Z,5.83
2022-11-08T07:58:49.188Z,6.41
2022-11-08T08:01:46.032Z,6.41
2022-11-08T08:04:42.981Z,6.64
2022-11-08T08:07:40.277Z,6.73
2022-11-08T08:10:37.550Z,6.89
2022-11-08T08:13:34.411Z,6.96
2022-11-08T08:16:31.430Z,6.97
2022-11-08T08:19:28.306Z,7.10
2022-11-08T08:22:25.191Z,7.11
2022-11-08T08:25:22.293Z,7.31
2022-11-08T08:28:19.115Z,7.50
2022-11-08T08:31:16.309Z,7.43
2022-11-08T08:34:15.559Z,7.62
2022-11-08T08:37:15.363Z,7.61
2022-11-08T08:40:12.560Z,7.62
2022-11-08T08:43:09.380Z,7.72
2022-11-08T08:46:07.286Z,7.86
2022-11-08T08:49:04.640Z,8.06
2022-11-08T08:52:01.907Z,8.14
2022-11-08T08:54:58.862Z,8.06
2022-11-08T08:57:56.521Z,8.10
2022-11-08T09:04:10.280Z,8.24
2022-11-08T09:07:07.486Z,8.42
2022-11-08T09:10:07.060Z,8.60
2022-11-08T09:13:04.228Z,8.43
2022-11-08T09:16:02.866Z,8.28
2022-11-08T09:18:59.757Z,8.40
2022-11-08T09:21:56.659Z,8.51
2022-11-08T09:24:53.646Z,8.62
2022-11-08T09:27:51.020Z,8.67
2022-11-08T09:30:47.852Z,8.88
2022-11-08T09:33:44.691Z,8.91
2022-11-08T09:36:41.525Z,8.93
2022-11-08T09:39:38.396Z,8.97
2022-11-08T09:43:21.101Z,9.09
2022-11-08T09:46:38.210Z,9.40
2022-11-08T09:50:06.566Z,9.36
2022-11-08T09:53:19.047Z,10.32
2022-11-08T09:56:23.483Z,9.79
2022-11-08T09:59:32.565Z,9.63
2022-11-08T10:02:30.651Z,9.80
2022-11-08T10:05:34.874Z,9.79
2022-11-08T10:08:44.118Z,9.89
2022-11-08T10:12:09.738Z,12.14
2022-11-08T10:16:01.101Z,13.32
2022-11-08T10:19:09.750Z,13.66
2022-11-08T10:22:27.225Z,14.39
2022-11-08T10:25:38.387Z,13.71
2022-11-08T10:28:41.856Z,15.32
2022-11-08T10:31:41.757Z,15.93
2022-11-08T10:35:44.203Z,15.38
2022-11-08T10:38:59.930Z,14.89
2022-11-08T10:42:18.341Z,14.61
2022-11-08T10:45:15.247Z,12.85
2022-11-08T10:48:12.709Z,12.61
2022-11-08T10:51:09.550Z,12.32
2022-11-08T10:54:07.313Z,12.23
2022-11-08T10:57:04.219Z,11.94
2022-11-08T11:00:19.726Z,12.34
2022-11-08T11:03:28.798Z,12.27
2022-11-08T11:06:32.861Z,12.14
2022-11-08T11:09:29.909Z,12.65
2022-11-08T11:12:26.888Z,12.85
2022-11-08T11:15:23.751Z,12.45
2022-11-08T11:18:49.088Z,12.01
2022-11-08T11:21:54.564Z,11.93
2022-11-08T11:24:54.104Z,12.24
2022-11-08T11:28:00.853Z,12.29
2022-11-08T11:31:13.128Z,12.35
2022-11-08T11:34:19.031Z,13.55
2022-11-08T11:37:34.114Z,13.25
2022-11-08T11:40:45.612Z,14.23
2022-11-08T11:43:56.541Z,14.79
2022-11-08T11:47:06.914Z,13.78
2022-11-08T11:50:41.680Z,13.48
2022-11-08T11:53:39.790Z,13.24
2022-11-08T11:57:16.738Z,12.53
2022-11-08T12:00:16.138Z,14.83
2022-11-08T12:03:39.062Z,14.26
2022-11-08T12:07:19.170Z,14.53
2022-11-08T12:10:50.297Z,14.67
2022-11-08T12:13:59.751Z,15.18
2022-11-08T12:17:19.057Z,15.28
2022-11-08T12:20:35.522Z,15.11
2022-11-08T12:24:18.111Z,14.96
2022-11-08T12:27:50.021Z,14.84
2022-11-08T12:31:03.058Z,14.54
2022-11-08T12:34:33.587Z,14.82
2022-11-08T12:37:33.078Z,14.60
2022-11-08T12:40:51.204Z,14.46
2022-11-08T12:44:09.774Z,14.18
2022-11-08T12:47:28.924Z,14.21
2022-11-08T12:50:56.324Z,14.21
2022-11-08T12:54:36.514Z,14.00
2022-11-08T12:57:33.509Z,13.76
2022-11-08T13:00:31.029Z,14.10
2022-11-08T13:03:51.597Z,14.04
2022-11-08T13:07:19.015Z,14.12
2022-11-08T13:10:24.781Z,13.53
2022-11-08T13:13:58.449Z,13.18
2022-11-08T13:17:20.168Z,13.26
2022-11-08T13:20:48.227Z,13.77
2022-11-08T13:23:45.284Z,13.92
2022-11-08T13:26:43.362Z,13.06
2022-11-08T13:29:40.753Z,12.97
2022-11-08T13:32:43.882Z,12.74
2022-11-08T13:35:53.008Z,13.07
2022-11-08T13:39:22.767Z,13.35
2022-11-08T13:42:19.859Z,13.30
2022-11-08T13:45:17.117Z,13.20
2022-11-08T13:48:26.529Z,13.00
2022-11-08T13:51:33.614Z,13.00
2022-11-08T13:54:50.890Z,12.84
2022-11-08T13:57:58.727Z,12.60
2022-11-08T14:00:56.132Z,12.62
2022-11-08T14:03:56.275Z,12.34
2022-11-08T14:07:25.386Z,12.36
2022-11-08T14:10:39.919Z,12.32
2022-11-08T14:14:17.220Z,12.24
2022-11-08T14:17:29.885Z,11.95
2022-11-08T14:20:34.818Z,12.06
2022-11-08T14:23:36.482Z,11.99
2022-11-08T14:26:33.332Z,12.08
2022-11-08T14:29:30.383Z,11.88
2022-11-08T14:32:27.341Z,11.82
2022-11-08T14:35:25.952Z,12.03
2022-11-08T14:38:23.131Z,12.10
2022-11-08T14:41:27.793Z,12.04
2022-11-08T14:44:26.088Z,11.96
2022-11-08T14:47:27.583Z,11.59
2022-11-08T14:50:32.571Z,11.64
2022-11-08T14:53:33.686Z,11.73
2022-11-08T14:56:38.720Z,11.75
2022-11-08T14:59:35.578Z,11.44
2022-11-08T15:02:33.464Z,11.48
2022-11-08T15:05:55.120Z,10.96
2022-11-08T15:08:55.154Z,10.78
2022-11-08T15:11:58.225Z,10.91
2022-11-08T15:15:00.474Z,10.52
2022-11-08T15:18:15.074Z,10.69
2022-11-08T15:21:11.823Z,10.51
2022-11-08T15:24:15.251Z,10.35
2022-11-08T15:27:11.951Z,10.01
2022-11-08T15:30:17.153Z,10.47
2022-11-08T15:33:35.554Z,10.03
2022-11-08T15:36:36.163Z,9.75
2022-11-08T15:39:39.653Z,9.50
2022-11-08T15:42:45.764Z,9.44
2022-11-08T15:45:53.405Z,9.67
2022-11-08T15:48:57.750Z,9.91
2022-11-08T15:51:58.526Z,9.58
2022-11-08T15:54:55.323Z,9.90
2022-11-08T15:57:52.587Z,9.50
2022-11-08T16:00:50.147Z,9.41
2022-11-08T16:03:48.428Z,9.20
2022-11-08T16:06:45.460Z,9.27
2022-11-08T16:09:42.385Z,9.51
2022-11-08T16:12:42.828Z,9.04
2022-11-08T16:15:39.703Z,9.19
2022-11-08T16:18:36.634Z,8.71
2022-11-08T16:21:33.473Z,8.44
2022-11-08T16:24:30.372Z,8.25
2022-11-08T16:27:27.209Z,8.18
2022-11-08T16:30:24.444Z,8.33
2022-11-08T16:33:24.396Z,7.97
2022-11-08T16:36:24.644Z,8.04
2022-11-08T16:39:28.259Z,7.99
2022-11-08T16:42:25.855Z,7.69
2022-11-08T16:45:43.423Z,7.68
2022-11-08T16:48:47.384Z,7.63
2022-11-08T16:51:44.222Z,7.49
2022-11-08T16:54:41.119Z,7.57
2022-11-08T16:57:37.927Z,7.43
2022-11-08T17:00:34.957Z,7.54
2022-11-08T17:03:32.600Z,7.52
2022-11-08T17:06:29.472Z,7.47
2022-11-08T17:09:26.523Z,7.53
2022-11-08T17:12:23.461Z,7.47
2022-11-08T17:15:27.249Z,7.52
2022-11-08T17:18:24.254Z,7.09
2022-11-08T17:24:38.676Z,7.26
2022-11-08T17:27:35.559Z,7.10
2022-11-08T17:30:32.734Z,7.21
2022-11-08T17:33:29.719Z,7.25
2022-11-08T17:36:26.576Z,7.37
2022-11-08T17:39:23.426Z,7.01
2022-11-08T17:42:20.220Z,7.33
2022-11-08T17:45:17.057Z,7.57
2022-11-08T17:48:13.915Z,7.58
2022-11-08T17:51:12.021Z,7.35
2022-11-08T17:54:08.913Z,7.30
2022-11-08T17:57:05.743Z,7.35
2022-11-08T18:00:08.600Z,7.27
2022-11-08T18:03:12.556Z,7.13
2022-11-08T18:06:13.224Z,7.02
2022-11-08T18:09:10.470Z,7.60
2022-11-08T18:12:07.397Z,7.49
2022-11-08T18:15:06.179Z,7.07
2022-11-08T18:18:03.207Z,7.23
2022-11-08T18:21:00.013Z,7.27
2022-11-08T18:23:59.759Z,7.16
2022-11-08T18:26:56.743Z,7.38
2022-11-08T18:29:53.567Z,7.26
2022-11-08T18:32:50.472Z,7.48
2022-11-08T18:35:47.463Z,7.41
2022-11-08T18:38:45.814Z,7.44
2022-11-08T18:41:42.683Z,7.49
2022-11-08T18:44:40.600Z,7.45
2022-11-08T18:47:37.440Z,7.40
2022-11-08T18:50:35.403Z,7.39
2022-11-08T18:53:32.811Z,7.49
2022-11-08T18:56:29.827Z,7.41
2022-11-08T18:59:26.659Z,7.34
2022-11-08T19:02:23.717Z,7.32
2022-11-08T19:05:20.547Z,7.33
2022-11-08T19:08:21.945Z,7.38
2022-11-08T19:11:22.769Z,7.56
2022-11-08T19:14:19.872Z,7.52
2022-11-08T19:17:16.706Z,7.33
2022-11-08T19:20:13.652Z,7.30
2022-11-08T19:23:10.574Z,7.27
2022-11-08T19:26:17.931Z,7.24
2022-11-08T19:29:14.762Z,7.20
2022-11-08T19:32:11.658Z,7.26
2022-11-08T19:35:08.798Z,7.22
2022-11-08T19:38:06.080Z,7.15
2022-11-08T19:41:06.606Z,7.33
2022-11-08T19:44:05.295Z,7.21
2022-11-08T19:47:02.199Z,7.10
2022-11-08T19:49:59.010Z,7.00
2022-11-08T19:52:55.885Z,7.12
2022-11-08T19:56:04.889Z,7.11
2022-11-08T19:59:02.449Z,7.22
2022-11-08T20:01:59.999Z,7.19
2022-11-08T20:04:57.037Z,7.11
2022-11-08T20:07:53.917Z,7.11
2022-11-08T20:10:51.559Z,7.05
2022-11-08T20:13:48.610Z,7.19
2022-11-08T20:16:49.356Z,7.01
2022-11-08T20:19:50.702Z,6.95
2022-11-08T20:22:48.373Z,7.00
2022-11-08T20:25:45.270Z,7.07
2022-11-08T20:28:55.197Z,7.05
2022-11-08T20:31:54.344Z,7.00
2022-11-08T20:34:51.516Z,6.92
2022-11-08T20:37:48.457Z,6.85
2022-11-08T20:40:45.295Z,6.74
2022-11-08T20:43:44.659Z,6.76
2022-11-08T20:46:41.598Z,6.66
2022-11-08T20:49:38.445Z,6.55
2022-11-08T20:52:35.267Z,6.66
2022-11-08T20:55:32.358Z,6.71
2022-11-08T20:58:31.969Z,6.67
2022-11-08T21:01:30.590Z,6.70
2022-11-08T21:04:27.453Z,6.89
2022-11-08T21:10:43.199Z,6.69
2022-11-08T21:13:43.609Z,6.36
2022-11-08T21:17:06.589Z,7.27
2022-11-08T21:19:57.231Z,8.13
2022-11-08T21:22:54.049Z,7.21
2022-11-08T21:25:51.309Z,7.03
2022-11-08T21:28:48.231Z,6.92
2022-11-08T21:31:45.039Z,6.75
2022-11-08T21:34:45.827Z,6.77
2022-11-08T21:37:43.156Z,6.60
2022-11-08T21:40:40.067Z,6.57
2022-11-08T21:43:39.705Z,6.48
2022-11-08T21:46:36.554Z,6.44
2022-11-08T21:49:33.387Z,6.48
2022-11-08T21:52:30.349Z,6.59
2022-11-08T21:55:28.580Z,6.73
2022-11-08T21:58:25.426Z,6.82
2022-11-08T22:01:25.563Z,6.79
2022-11-08T22:04:26.574Z,6.78
2022-11-08T22:07:23.468Z,6.76
2022-11-08T22:10:20.414Z,6.92
2022-11-08T22:13:17.495Z,7.08
2022-11-08T22:16:14.361Z,7.03
2022-11-08T22:19:11.597Z,7.05
2022-11-08T22:22:09.085Z,7.08
2022-11-08T22:25:06.492Z,7.13
2022-11-08T22:28:03.336Z,7.12
2022-11-08T22:31:00.258Z,7.11
2022-11-08T22:33:57.176Z,7.06
2022-11-08T22:36:53.997Z,7.10
2022-11-08T22:39:50.814Z,7.26
2022-11-08T22:42:47.598Z,7.20
2022-11-08T22:45:44.626Z,7.22
2022-11-08T22:48:41.728Z,7.29
2022-11-08T22:51:39.921Z,7.26
2022-11-08T22:54:36.815Z,7.33
2022-11-08T22:57:33.604Z,7.39
2022-11-08T23:00:30.555Z,7.33
2022-11-08T23:03:27.372Z,7.38
2022-11-08T23:06:24.219Z,7.45
2022-11-08T23:09:21.126Z,7.52
2022-11-08T23:12:36.387Z,7.47
2022-11-08T23:15:53.635Z,7.32
2022-11-08T23:19:09.063Z,7.77
2022-11-08T23:22:28.538Z,8.46
2022-11-08T23:25:25.366Z,8.18
2022-11-08T23:28:41.119Z,8.24
2022-11-08T23:31:38.037Z,8.21
2022-11-08T23:34:34.836Z,8.53
2022-11-08T23:37:31.657Z,8.90
2022-11-08T23:40:47.282Z,8.93
2022-11-08T23:44:02.496Z,9.36
2022-11-08T23:47:01.119Z,9.13
2022-11-08T23:49:57.958Z,9.58
2022-11-08T23:52:54.790Z,9.10
2022-11-08T23:55:53.533Z,9.32
2022-11-08T23:58:55.974Z,9.25
